Time;durP1;ratioP1;P1;durP2;ratioP2;P2;SDS_P1;SDS_P2;PMS_P1;PMS_P2;Temp;Humidity;BMP_temperature;BMP_pressure;BME280_temperature;BME280_humidity;BME280_pressure;Samples;Min_cycle;Max_cycle;Signal;HPM_P1;HPM_P2
2023/12/08 00:00:07;;;;;;;17.97;16.50;;;2.10;99.90;;;;;;5033597;28;20663;-69
2023/12/08 00:02:34;;;;;;;17.10;15.80;;;2.10;99.90;;;;;;5022379;28;20216;-69
2023/12/08 00:05:03;;;;;;;17.23;15.83;;;2.10;99.90;;;;;;5030929;28;20275;-69
2023/12/08 00:07:30;;;;;;;16.97;15.77;;;2.10;99.90;;;;;;5038636;28;20220;-67
2023/12/08 00:09:57;;;;;;;16.93;15.63;;;2.10;99.90;;;;;;5008790;28;20197;-67
2023/12/08 00:12:24;;;;;;;17.10;15.90;;;2.20;99.90;;;;;;5027257;28;20231;-66
2023/12/08 00:14:51;;;;;;;17.87;16.57;;;2.10;99.90;;;;;;5026053;28;20203;-69
2023/12/08 00:17:19;;;;;;;17.07;15.87;;;2.20;99.90;;;;;;5027839;28;20683;-69
2023/12/08 00:19:46;;;;;;;18.80;16.60;;;2.20;99.90;;;;;;5026101;28;20217;-69
2023/12/08 00:22:14;;;;;;;20.17;17.60;;;2.10;99.90;;;;;;5026603;28;20295;-69
2023/12/08 00:24:40;;;;;;;18.17;16.63;;;2.10;99.90;;;;;;5031325;28;20189;-68
2023/12/08 00:27:07;;;;;;;17.90;16.50;;;2.00;99.90;;;;;;5029989;28;20613;-69
2023/12/08 00:29:37;;;;;;;17.90;16.60;;;2.00;99.90;;;;;;5018440;28;20600;-70
2023/12/08 00:32:04;;;;;;;18.10;16.50;;;1.90;99.90;;;;;;5029643;28;20196;-69
2023/12/08 00:34:31;;;;;;;17.13;15.73;;;1.90;99.90;;;;;;5012206;28;20185;-65
2023/12/08 00:36:58;;;;;;;18.20;16.70;;;1.90;99.90;;;;;;5010655;28;20211;-66
2023/12/08 00:39:25;;;;;;;17.67;16.17;;;1.90;99.90;;;;;;5022258;28;20250;-66
2023/12/08 00:41:52;;;;;;;17.33;15.97;;;1.90;99.90;;;;;;5027075;28;20224;-65
2023/12/08 00:44:19;;;;;;;17.97;16.17;;;2.00;99.90;;;;;;5021471;28;20374;-66
2023/12/08 00:46:46;;;;;;;17.43;16.07;;;2.00;99.90;;;;;;5018319;28;20894;-68
2023/12/08 00:49:13;;;;;;;17.73;16.23;;;2.10;99.90;;;;;;5019865;28;20212;-69
2023/12/08 00:51:40;;;;;;;17.77;16.10;;;2.10;99.90;;;;;;5007553;28;20251;-70
2023/12/08 00:54:07;;;;;;;17.33;16.03;;;2.10;99.90;;;;;;5014006;28;20630;-69
2023/12/08 00:56:34;;;;;;;17.77;16.33;;;2.10;99.90;;;;;;5019806;28;20699;-69
2023/12/08 00:59:00;;;;;;;16.60;15.40;;;2.10;99.90;;;;;;5024115;28;20216;-68
2023/12/08 01:01:27;;;;;;;17.07;15.77;;;2.10;99.90;;;;;;5026171;28;20583;-69
2023/12/08 01:03:54;;;;;;;16.87;15.50;;;2.10;99.90;;;;;;5018117;28;20193;-69
2023/12/08 01:06:22;;;;;;;17.37;15.67;;;2.10;99.90;;;;;;5027628;28;20196;-69
2023/12/08 01:08:49;;;;;;;17.07;15.57;;;2.20;99.90;;;;;;5007822;28;20220;-69
2023/12/08 01:11:17;;;;;;;17.83;16.43;;;2.20;99.90;;;;;;5024695;28;20240;-69
2023/12/08 01:13:44;;;;;;;17.07;15.77;;;2.20;99.90;;;;;;5016961;28;20184;-69
2023/12/08 01:16:11;;;;;;;17.37;16.07;;;2.20;99.90;;;;;;5025260;28;20180;-66
2023/12/08 01:18:38;;;;;;;17.50;16.00;;;2.20;99.90;;;;;;5008068;28;20578;-66
2023/12/08 01:21:06;;;;;;;17.23;16.03;;;2.20;99.90;;;;;;5025466;28;20614;-66
2023/12/08 01:23:33;;;;;;;17.53;16.03;;;2.20;99.90;;;;;;5019183;28;20199;-66
2023/12/08 01:26:00;;;;;;;17.83;16.43;;;2.30;99.90;;;;;;5018149;28;20273;-66
2023/12/08 01:28:28;;;;;;;17.87;16.23;;;2.30;99.90;;;;;;5013142;28;20232;-66
2023/12/08 01:30:55;;;;;;;18.67;17.10;;;2.30;99.90;;;;;;5015361;28;20499;-66
2023/12/08 01:33:22;;;;;;;17.87;16.27;;;2.20;99.90;;;;;;5019128;28;20825;-66
2023/12/08 01:35:49;;;;;;;17.87;16.40;;;2.20;99.90;;;;;;5028160;28;20254;-66
2023/12/08 01:38:36;;;;;;;17.87;16.47;;;2.20;99.90;;;;;;5024210;28;20273;-66
2023/12/08 01:41:03;;;;;;;18.37;16.43;;;2.20;99.90;;;;;;5023808;28;20208;-66
2023/12/08 01:43:31;;;;;;;17.87;16.47;;;2.30;99.90;;;;;;5014264;28;20284;-66
2023/12/08 01:45:58;;;;;;;18.17;16.77;;;2.30;99.90;;;;;;5030347;28;20196;-66
2023/12/08 01:48:25;;;;;;;17.53;16.23;;;2.30;99.90;;;;;;5020116;28;20209;-65
2023/12/08 01:50:52;;;;;;;16.70;15.60;;;2.20;99.90;;;;;;5012454;28;20209;-66
2023/12/08 01:53:19;;;;;;;17.13;15.83;;;2.30;99.90;;;;;;5017767;28;20197;-66
2023/12/08 01:55:46;;;;;;;18.27;16.67;;;2.30;99.90;;;;;;5026250;28;20718;-65
2023/12/08 01:58:13;;;;;;;17.83;16.23;;;2.30;99.90;;;;;;5026669;28;20216;-64
2023/12/08 02:00:42;;;;;;;16.97;15.67;;;2.30;99.90;;;;;;5014314;28;20219;-64
2023/12/08 02:03:09;;;;;;;18.17;16.63;;;2.30;99.90;;;;;;5027064;28;20200;-64
2023/12/08 02:05:39;;;;;;;17.33;16.03;;;2.30;99.90;;;;;;5037563;28;20199;-65
2023/12/08 02:08:06;;;;;;;17.53;16.20;;;2.30;99.90;;;;;;5030608;28;20204;-68
2023/12/08 02:10:33;;;;;;;17.40;16.00;;;2.30;99.90;;;;;;5021836;28;20185;-68
2023/12/08 02:13:00;;;;;;;17.33;16.03;;;2.30;99.90;;;;;;5029016;28;20325;-69
2023/12/08 02:15:27;;;;;;;17.27;16.07;;;2.30;99.90;;;;;;5029732;28;20502;-69
2023/12/08 02:17:56;;;;;;;17.73;16.20;;;2.30;99.90;;;;;;5029847;28;20740;-66
2023/12/08 02:20:23;;;;;;;16.63;15.47;;;2.30;99.90;;;;;;5030855;28;20745;-68
2023/12/08 02:22:50;;;;;;;17.00;15.73;;;2.30;99.90;;;;;;5012756;28;20207;-68
2023/12/08 02:25:17;;;;;;;17.80;16.40;;;2.30;99.90;;;;;;5009073;28;20205;-70
2023/12/08 02:27:44;;;;;;;18.63;17.03;;;2.30;99.90;;;;;;5014119;28;20650;-71
2023/12/08 02:30:11;;;;;;;18.17;16.87;;;2.30;99.90;;;;;;5031322;28;20216;-70
2023/12/08 02:32:50;;;;;;;17.87;16.37;;;2.30;99.90;;;;;;5031032;28;20192;-70
2023/12/08 02:35:20;;;;;;;17.60;16.20;;;2.40;99.90;;;;;;5031262;28;20192;-69
2023/12/08 02:37:48;;;;;;;17.67;16.27;;;2.40;99.90;;;;;;5030783;28;20235;-69
2023/12/08 02:40:15;;;;;;;17.60;16.30;;;2.40;99.90;;;;;;5029312;28;20200;-70
2023/12/08 02:42:42;;;;;;;17.07;15.87;;;2.40;99.90;;;;;;5028630;28;20696;-70
2023/12/08 02:45:09;;;;;;;17.93;16.47;;;2.40;99.90;;;;;;5024835;28;20201;-70
2023/12/08 02:47:36;;;;;;;16.80;15.60;;;2.40;99.90;;;;;;5040184;28;20208;-70
2023/12/08 02:50:04;;;;;;;17.90;16.53;;;2.40;99.90;;;;;;5023631;28;20281;-71
2023/12/08 02:52:31;;;;;;;18.50;17.10;;;2.50;99.90;;;;;;5027247;28;20660;-70
2023/12/08 02:54:58;;;;;;;17.43;16.17;;;2.50;99.90;;;;;;5012417;28;20654;-70
2023/12/08 02:57:25;;;;;;;17.57;16.13;;;2.50;99.90;;;;;;5034871;28;20681;-69
2023/12/08 02:59:53;;;;;;;16.87;15.63;;;2.50;99.90;;;;;;5028936;28;20203;-69
2023/12/08 03:06:20;;;;;;;17.43;16.03;;;2.50;99.90;;;;;;5039863;28;20194;-69
2023/12/08 03:08:47;;;;;;;18.43;16.83;;;2.50;99.90;;;;;;5010809;28;20738;-69
2023/12/08 03:11:14;;;;;;;19.83;17.87;;;2.60;99.90;;;;;;5029460;28;20573;-69
2023/12/08 03:13:41;;;;;;;19.60;17.73;;;2.60;99.90;;;;;;5019633;28;20197;-69
2023/12/08 03:16:08;;;;;;;18.33;16.83;;;2.60;99.90;;;;;;5021886;28;20339;-69
2023/12/08 03:18:35;;;;;;;18.47;16.93;;;2.60;99.90;;;;;;5019174;28;20248;-66
2023/12/08 03:21:02;;;;;;;17.63;16.33;;;2.60;99.90;;;;;;5013325;28;20277;-66
2023/12/08 03:23:29;;;;;;;29.50;20.33;;;2.60;99.90;;;;;;5024465;28;20564;-66
2023/12/08 03:25:56;;;;;;;25.33;22.70;;;2.50;99.90;;;;;;5029991;28;20542;-66
2023/12/08 03:28:23;;;;;;;21.23;19.33;;;2.50;99.90;;;;;;5030530;28;20640;-66
2023/12/08 03:30:50;;;;;;;18.87;17.37;;;2.60;99.90;;;;;;5027084;28;20215;-67
2023/12/08 03:33:16;;;;;;;20.47;18.37;;;2.60;99.90;;;;;;5031629;28;20192;-67
2023/12/08 03:35:44;;;;;;;18.27;16.73;;;2.60;99.90;;;;;;5022924;28;20216;-68
2023/12/08 03:38:11;;;;;;;18.63;17.10;;;2.60;99.90;;;;;;5019478;28;20227;-68
2023/12/08 03:40:38;;;;;;;19.33;17.73;;;2.50;99.90;;;;;;5030335;28;20663;-69
2023/12/08 03:43:05;;;;;;;19.50;17.50;;;2.60;99.90;;;;;;5031158;28;20216;-69
2023/12/08 03:45:32;;;;;;;19.07;17.17;;;2.50;99.90;;;;;;5025260;28;20236;-70
2023/12/08 03:47:59;;;;;;;18.17;16.60;;;2.50;99.90;;;;;;5029607;28;20224;-69
2023/12/08 03:50:26;;;;;;;18.47;16.93;;;2.50;99.90;;;;;;5021484;28;20217;-70
2023/12/08 03:52:54;;;;;;;18.00;16.70;;;2.60;99.90;;;;;;5020673;28;20201;-69
2023/12/08 03:55:22;;;;;;;17.10;15.90;;;2.60;99.90;;;;;;5040500;28;20200;-69
2023/12/08 03:57:49;;;;;;;19.67;17.67;;;2.60;99.90;;;;;;5028339;28;20272;-69
2023/12/08 04:00:17;;;;;;;18.40;17.00;;;2.60;99.90;;;;;;5028397;28;20274;-69
2023/12/08 04:02:44;;;;;;;19.63;18.03;;;2.60;99.90;;;;;;5029267;28;20204;-65
2023/12/08 04:05:11;;;;;;;20.00;18.27;;;2.60;99.90;;;;;;5028731;28;20220;-64
2023/12/08 04:07:39;;;;;;;19.00;17.47;;;2.60;99.90;;;;;;5029668;28;20223;-64
2023/12/08 04:10:06;;;;;;;19.73;17.93;;;2.70;99.90;;;;;;5008113;28;20274;-64
2023/12/08 04:12:33;;;;;;;19.03;17.27;;;2.70;99.90;;;;;;5029330;28;20285;-65
2023/12/08 04:15:00;;;;;;;18.43;16.93;;;2.70;99.90;;;;;;5035991;28;20294;-66
2023/12/08 04:17:27;;;;;;;18.77;17.10;;;2.70;99.90;;;;;;5038753;28;20202;-67
2023/12/08 04:19:55;;;;;;;18.83;17.07;;;2.70;99.90;;;;;;5022085;28;20328;-68
2023/12/08 04:22:22;;;;;;;20.17;18.33;;;2.80;99.90;;;;;;5028737;28;20254;-68
2023/12/08 04:24:49;;;;;;;18.03;16.57;;;2.70;99.90;;;;;;5032627;28;20204;-68
2023/12/08 04:27:16;;;;;;;18.77;17.30;;;2.80;99.90;;;;;;5040350;28;20204;-71
2023/12/08 04:29:43;;;;;;;18.70;17.03;;;2.70;99.90;;;;;;5013649;28;20214;-71
2023/12/08 04:32:10;;;;;;;18.90;17.20;;;2.70;99.90;;;;;;5031035;28;20193;-71
2023/12/08 04:34:37;;;;;;;19.57;17.70;;;2.70;99.90;;;;;;5020250;28;20226;-71
2023/12/08 04:37:04;;;;;;;18.63;17.13;;;2.70;99.90;;;;;;5032997;28;20640;-71
2023/12/08 04:39:32;;;;;;;18.97;17.47;;;2.70;99.90;;;;;;5008855;28;20295;-71
2023/12/08 04:41:59;;;;;;;19.57;17.77;;;2.70;99.90;;;;;;5042002;28;20249;-70
2023/12/08 04:44:26;;;;;;;18.93;17.30;;;2.60;99.90;;;;;;5041037;28;20208;-70
2023/12/08 04:46:52;;;;;;;18.97;17.47;;;2.50;99.90;;;;;;5024886;28;20246;-68
2023/12/08 04:49:20;;;;;;;18.30;17.03;;;2.60;99.90;;;;;;5021710;28;20214;-68
2023/12/08 04:51:47;;;;;;;18.53;17.07;;;2.60;99.90;;;;;;5020832;28;20555;-68
2023/12/08 04:54:14;;;;;;;20.13;18.43;;;2.50;99.90;;;;;;5030589;28;20194;-66
2023/12/08 04:56:41;;;;;;;20.77;18.80;;;2.50;99.90;;;;;;5036039;28;20309;-65
2023/12/08 04:59:09;;;;;;;19.50;17.80;;;2.50;99.90;;;;;;5039361;28;20314;-67
2023/12/08 05:01:36;;;;;;;21.20;19.10;;;2.40;99.90;;;;;;5019079;28;20411;-66
2023/12/08 05:04:03;;;;;;;22.37;20.37;;;2.40;99.90;;;;;;5038972;28;20538;-68
2023/12/08 05:06:30;;;;;;;20.20;18.43;;;2.40;99.90;;;;;;5048518;28;20623;-68
2023/12/08 05:08:57;;;;;;;23.00;20.70;;;2.40;99.90;;;;;;5020995;28;20646;-67
2023/12/08 05:11:24;;;;;;;22.87;20.37;;;2.30;99.90;;;;;;5030908;28;20231;-66
2023/12/08 05:13:51;;;;;;;25.30;21.93;;;2.10;99.90;;;;;;5032348;28;20754;-67
2023/12/08 05:16:18;;;;;;;21.73;19.57;;;2.10;99.90;;;;;;5032504;28;20649;-66
2023/12/08 05:18:45;;;;;;;23.07;20.63;;;2.10;99.90;;;;;;5035286;28;20197;-67
2023/12/08 05:21:12;;;;;;;22.70;20.13;;;2.10;99.90;;;;;;5012827;28;20553;-67
2023/12/08 05:23:39;;;;;;;21.23;19.07;;;2.10;99.90;;;;;;5030466;28;20180;-68
2023/12/08 05:26:07;;;;;;;19.43;17.93;;;2.10;99.90;;;;;;5030953;28;20207;-68
2023/12/08 05:28:34;;;;;;;22.00;19.87;;;2.10;99.90;;;;;;5032200;28;20188;-71
2023/12/08 05:31:02;;;;;;;19.90;18.20;;;2.10;99.90;;;;;;5021111;28;20201;-69
2023/12/08 05:33:31;;;;;;;18.67;17.20;;;2.00;99.90;;;;;;5018869;28;20441;-67
2023/12/08 05:35:59;;;;;;;20.57;18.80;;;1.90;99.90;;;;;;5017779;28;20200;-66
2023/12/08 05:38:28;;;;;;;20.07;18.23;;;1.90;99.90;;;;;;5016511;28;20188;-67
2023/12/08 05:40:55;;;;;;;19.80;17.80;;;1.80;99.90;;;;;;5046926;28;20684;-67
2023/12/08 05:43:22;;;;;;;20.63;18.67;;;1.80;99.90;;;;;;5023571;28;20197;-68
2023/12/08 05:45:49;;;;;;;19.50;17.70;;;1.90;99.90;;;;;;5026151;28;20184;-67
2023/12/08 05:48:16;;;;;;;20.23;18.30;;;1.90;99.90;;;;;;5022161;28;20280;-68
2023/12/08 05:50:43;;;;;;;19.60;17.80;;;1.90;99.90;;;;;;5021270;28;20727;-68
2023/12/08 05:53:13;;;;;;;18.67;16.93;;;1.90;99.90;;;;;;5020772;28;20284;-68
2023/12/08 05:55:40;;;;;;;20.40;18.03;;;1.90;99.90;;;;;;5024715;28;20709;-67
2023/12/08 05:58:07;;;;;;;19.70;17.80;;;1.80;99.90;;;;;;5017758;28;20209;-66
2023/12/08 06:00:34;;;;;;;19.03;17.43;;;1.80;99.90;;;;;;5019054;28;20845;-66
2023/12/08 06:03:02;;;;;;;18.97;17.07;;;1.80;99.90;;;;;;5020334;28;20625;-66
2023/12/08 06:05:29;;;;;;;19.10;17.30;;;1.80;99.90;;;;;;5025467;28;20196;-66
2023/12/08 06:07:57;;;;;;;18.63;16.97;;;1.80;99.90;;;;;;5020778;28;20666;-66
2023/12/08 06:10:24;;;;;;;19.53;17.63;;;1.80;99.90;;;;;;5021303;28;20215;-66
2023/12/08 06:12:52;;;;;;;18.33;16.67;;;1.80;99.90;;;;;;5028645;28;20599;-65
2023/12/08 06:15:19;;;;;;;19.40;17.53;;;1.80;1.00;;;;;;5025560;28;20199;-66
2023/12/08 06:17:46;;;;;;;19.13;17.07;;;1.80;1.00;;;;;;5028296;28;20250;-66
2023/12/08 06:20:14;;;;;;;18.33;16.73;;;1.80;1.00;;;;;;5025978;28;20283;-66
2023/12/08 06:22:41;;;;;;;19.60;17.17;;;1.80;1.00;;;;;;5030017;28;20919;-66
2023/12/08 06:25:08;;;;;;;18.73;16.73;;;1.90;1.00;;;;;;5024407;28;20561;-66
2023/12/08 06:27:37;;;;;;;17.93;16.20;;;1.80;1.00;;;;;;5000844;28;20193;-66
2023/12/08 06:30:05;;;;;;;20.03;17.67;;;1.80;1.00;;;;;;5021602;28;20212;-66
2023/12/08 06:32:32;;;;;;;17.50;15.73;;;1.80;1.00;;;;;;5009585;28;20211;-66
2023/12/08 06:34:59;;;;;;;26.13;19.33;;;1.80;1.00;;;;;;5039221;28;20200;-66
2023/12/08 06:37:26;;;;;;;19.80;17.67;;;1.90;1.00;;;;;;5025097;28;20636;-66
2023/12/08 06:39:54;;;;;;;26.13;21.93;;;1.90;1.00;;;;;;5023706;28;20192;-68
2023/12/08 06:42:21;;;;;;;27.23;17.27;;;1.90;89.20;;;;;;5022905;28;20205;-70
2023/12/08 06:44:48;;;;;;;18.83;16.83;;;1.90;99.90;;;;;;5026359;28;20267;-71
2023/12/08 06:47:15;;;;;;;16.87;14.97;;;2.00;99.90;;;;;;5029970;28;20204;-65
2023/12/08 06:49:42;;;;;;;18.47;16.23;;;2.00;99.90;;;;;;5029224;28;20224;-65
2023/12/08 06:52:10;;;;;;;17.87;16.03;;;2.00;99.90;;;;;;5030545;28;20296;-66
2023/12/08 06:54:36;;;;;;;17.60;15.90;;;2.00;99.90;;;;;;5023433;28;20224;-69
2023/12/08 06:57:04;;;;;;;19.13;15.90;;;1.90;99.90;;;;;;5045269;28;20216;-68
2023/12/08 06:59:31;;;;;;;18.80;16.17;;;2.00;99.90;;;;;;5026331;28;20712;-68
2023/12/08 07:01:58;;;;;;;19.03;15.97;;;2.00;99.90;;;;;;5033748;28;20265;-69
2023/12/08 07:04:24;;;;;;;20.30;16.87;;;2.00;99.90;;;;;;5036558;28;20251;-69
2023/12/08 07:06:51;;;;;;;9.23;8.83;;;2.00;99.90;;;;;;5034116;28;20200;-69
2023/12/08 07:09:18;;;;;;;17.17;14.90;;;1.90;99.90;;;;;;5033646;28;20349;-69
2023/12/08 07:11:45;;;;;;;19.60;16.70;;;1.90;99.90;;;;;;5019613;28;20234;-69
2023/12/08 07:14:12;;;;;;;8.90;8.50;;;1.90;1.00;;;;;;5033510;28;20242;-69
2023/12/08 07:16:43;;;;;;;8.80;8.40;;;1.90;1.00;;;;;;5028344;28;20193;-69
2023/12/08 07:19:10;;;;;;;8.70;8.30;;;2.00;1.00;;;;;;5044731;28;20196;-69
2023/12/08 07:21:44;;;;;;;8.30;7.90;;;2.00;1.00;;;;;;5038816;28;20227;-67
2023/12/08 07:24:11;;;;;;;8.67;8.27;;;2.10;63.00;;;;;;5034631;28;20707;-66
2023/12/08 07:26:38;;;;;;;8.20;7.80;;;2.00;99.90;;;;;;5044268;28;20694;-66
2023/12/08 07:29:05;;;;;;;8.23;7.83;;;2.10;99.90;;;;;;5038893;28;20734;-66
2023/12/08 07:31:32;;;;;;;8.20;7.80;;;2.00;99.90;;;;;;5011104;28;20243;-66
2023/12/08 07:33:59;;;;;;;8.13;7.73;;;2.10;99.90;;;;;;5016338;28;20319;-66
2023/12/08 07:36:26;;;;;;;9.17;8.77;;;2.00;99.90;;;;;;5028028;28;20195;-67
2023/12/08 07:38:53;;;;;;;7.80;7.50;;;2.10;1.00;;;;;;5010849;28;20212;-67
2023/12/08 07:41:20;;;;;;;7.87;7.57;;;2.10;1.00;;;;;;5029681;28;20201;-68
2023/12/08 07:43:48;;;;;;;8.20;7.80;;;2.10;1.00;;;;;;5034242;28;20571;-68
2023/12/08 07:46:15;;;;;;;7.77;7.47;;;2.10;1.00;;;;;;5018200;28;20200;-67
2023/12/08 07:48:42;;;;;;;7.80;7.50;;;2.20;1.00;;;;;;5029730;28;20188;-68
2023/12/08 07:51:10;;;;;;;7.73;7.43;;;2.20;1.00;;;;;;5023655;28;20204;-68
2023/12/08 07:53:37;;;;;;;7.53;7.23;;;2.20;1.00;;;;;;5019551;28;20193;-67
2023/12/08 07:56:04;;;;;;;7.50;7.20;;;2.20;1.00;;;;;;5033203;28;20195;-67
2023/12/08 07:58:31;;;;;;;7.40;7.10;;;2.20;1.00;;;;;;5027579;28;20232;-67
2023/12/08 08:00:58;;;;;;;7.33;7.03;;;2.20;1.00;;;;;;5034093;28;20195;-68
2023/12/08 08:03:26;;;;;;;7.43;7.13;;;2.20;1.00;;;;;;5030550;28;20223;-68
2023/12/08 08:05:53;;;;;;;7.60;7.30;;;2.30;1.00;;;;;;5051538;28;20219;-67
2023/12/08 08:08:20;;;;;;;8.13;7.73;;;2.30;1.00;;;;;;5008626;28;20256;-67
2023/12/08 08:10:48;;;;;;;7.40;7.10;;;2.30;1.00;;;;;;5010517;28;20303;-68
2023/12/08 08:13:15;;;;;;;7.37;7.07;;;2.30;1.00;;;;;;5027292;28;20225;-68
2023/12/08 08:15:42;;;;;;;7.50;7.20;;;2.30;1.00;;;;;;5015840;28;20617;-68
2023/12/08 08:18:09;;;;;;;7.30;7.00;;;2.40;1.00;;;;;;5036252;28;20191;-67
2023/12/08 08:20:38;;;;;;;7.50;7.20;;;2.40;1.00;;;;;;5036026;28;20188;-68
2023/12/08 08:23:05;;;;;;;7.50;7.20;;;2.50;1.00;;;;;;5028466;28;20203;-68
2023/12/08 08:25:32;;;;;;;8.00;7.60;;;2.40;1.00;;;;;;4999054;28;20275;-69
2023/12/08 08:28:00;;;;;;;8.30;7.90;;;2.50;1.00;;;;;;5027211;28;20223;-69
2023/12/08 08:30:27;;;;;;;8.23;7.83;;;2.50;1.00;;;;;;5003309;28;20209;-69
2023/12/08 08:32:54;;;;;;;8.60;8.20;;;2.50;1.00;;;;;;5022677;28;20188;-69
2023/12/08 08:35:21;;;;;;;10.00;9.50;;;2.60;1.00;;;;;;5027605;28;20787;-67
2023/12/08 08:37:48;;;;;;;8.23;7.83;;;2.60;1.00;;;;;;5026193;28;20192;-67
2023/12/08 08:40:15;;;;;;;8.30;7.90;;;2.60;1.00;;;;;;5025284;28;20711;-67
2023/12/08 08:42:42;;;;;;;8.40;8.00;;;2.50;1.00;;;;;;5013727;28;20218;-68
2023/12/08 08:45:09;;;;;;;8.40;8.00;;;2.60;1.00;;;;;;5010236;28;20220;-68
2023/12/08 08:47:36;;;;;;;8.00;7.67;;;2.60;1.00;;;;;;5028121;28;20219;-68
2023/12/08 08:50:04;;;;;;;7.80;7.50;;;2.60;1.00;;;;;;5027488;28;20207;-68
2023/12/08 08:52:32;;;;;;;8.20;7.80;;;2.70;1.00;;;;;;5026994;28;20318;-68
2023/12/08 08:54:59;;;;;;;7.83;7.53;;;2.70;1.00;;;;;;5022967;28;20219;-67
2023/12/08 08:57:26;;;;;;;8.03;7.63;;;2.70;1.00;;;;;;5030679;28;20217;-68
2023/12/08 08:59:53;;;;;;;8.77;8.37;;;2.80;1.00;;;;;;5032964;28;20872;-68
2023/12/08 09:02:20;;;;;;;7.77;7.47;;;2.80;1.00;;;;;;5041372;28;20210;-68
2023/12/08 09:04:47;;;;;;;7.70;7.40;;;2.80;1.00;;;;;;5021053;28;20204;-68
2023/12/08 09:07:14;;;;;;;7.60;7.30;;;2.90;1.00;;;;;;5038999;28;20967;-68
2023/12/08 09:09:42;;;;;;;7.70;7.40;;;2.90;40.10;;;;;;5032691;28;20196;-68
2023/12/08 09:12:10;;;;;;;7.70;7.40;;;2.90;70.60;;;;;;5011092;28;20307;-68
2023/12/08 09:14:38;;;;;;;7.70;7.40;;;3.00;94.40;;;;;;5030890;28;20188;-68
2023/12/08 09:17:05;;;;;;;9.73;9.23;;;3.00;99.90;;;;;;5033463;28;20196;-68
2023/12/08 09:19:33;;;;;;;7.67;7.37;;;3.00;99.90;;;;;;5017611;28;20211;-68
2023/12/08 09:22:00;;;;;;;7.80;7.50;;;3.00;99.90;;;;;;5031343;28;20621;-68
2023/12/08 09:24:27;;;;;;;7.73;7.43;;;3.00;99.90;;;;;;5030287;28;20203;-68
2023/12/08 09:26:54;;;;;;;8.03;7.63;;;3.00;99.90;;;;;;5043860;28;20586;-67
2023/12/08 09:29:21;;;;;;;7.80;7.50;;;3.00;99.90;;;;;;5010238;28;20235;-67
2023/12/08 09:31:48;;;;;;;8.13;7.73;;;3.00;99.90;;;;;;5040868;28;20251;-67
2023/12/08 09:34:16;;;;;;;7.90;7.60;;;3.10;99.90;;;;;;5038131;28;20191;-68
2023/12/08 09:36:44;;;;;;;8.30;7.90;;;3.10;99.90;;;;;;5039018;28;20702;-68
2023/12/08 09:39:32;;;;;;;7.90;7.60;;;3.10;99.90;;;;;;5033931;28;20656;-68
2023/12/08 09:42:06;;;;;;;7.93;7.60;;;3.10;99.90;;;;;;5035965;28;20200;-68
2023/12/08 09:44:34;;;;;;;8.30;7.90;;;3.20;99.90;;;;;;5030970;28;20215;-68
2023/12/08 09:47:08;;;;;;;8.00;7.60;;;3.20;99.90;;;;;;5019245;28;20312;-67
2023/12/08 09:49:44;;;;;;;8.30;7.90;;;3.20;99.90;;;;;;5024059;28;20543;-66
2023/12/08 09:52:14;;;;;;;8.30;7.90;;;3.30;99.90;;;;;;5039931;28;20594;-69
2023/12/08 09:54:43;;;;;;;8.50;8.10;;;3.30;99.90;;;;;;5030091;28;20641;-68
2023/12/08 09:57:11;;;;;;;8.57;8.17;;;3.30;99.90;;;;;;5038708;28;20243;-68
2023/12/08 09:59:41;;;;;;;8.60;8.20;;;3.20;99.90;;;;;;5030033;28;20298;-68
2023/12/08 10:02:08;;;;;;;8.70;8.30;;;3.30;99.90;;;;;;5016662;28;20220;-69
2023/12/08 10:04:36;;;;;;;8.90;8.50;;;3.20;99.90;;;;;;5039845;28;20291;-69
2023/12/08 10:07:04;;;;;;;9.00;8.60;;;3.20;1.00;;;;;;5038028;28;20347;-69
2023/12/08 10:09:34;;;;;;;9.10;8.70;;;3.30;1.00;;;;;;5021215;28;20208;-69
2023/12/08 10:12:02;;;;;;;9.13;8.73;;;3.40;1.00;;;;;;5028972;28;20334;-69
2023/12/08 10:14:29;;;;;;;9.03;8.63;;;3.40;99.90;;;;;;5029699;28;20303;-69
2023/12/08 10:16:56;;;;;;;9.50;9.10;;;3.40;6.60;;;;;;5018608;28;20216;-69
2023/12/08 10:19:24;;;;;;;9.50;9.10;;;3.40;1.00;;;;;;5022891;28;20227;-69
2023/12/08 10:22:01;;;;;;;9.40;9.00;;;3.50;1.00;;;;;;5030135;28;20212;-69
2023/12/08 10:24:30;;;;;;;9.30;8.90;;;3.50;1.00;;;;;;5028590;28;20199;-69
2023/12/08 10:27:01;;;;;;;9.57;9.17;;;3.50;1.00;;;;;;5037015;28;20192;-69
2023/12/08 10:29:32;;;;;;;9.90;9.40;;;3.60;1.00;;;;;;5038809;28;20200;-68
2023/12/08 10:31:59;;;;;;;9.90;9.40;;;3.60;1.00;;;;;;5044217;28;20331;-67
2023/12/08 10:34:27;;;;;;;10.97;10.37;;;3.60;1.00;;;;;;5029226;28;20223;-68
2023/12/08 10:36:55;;;;;;;10.20;9.70;;;3.70;1.00;;;;;;5030215;28;20261;-67
2023/12/08 10:39:23;;;;;;;10.17;9.67;;;3.80;1.00;;;;;;5028942;28;20196;-67
2023/12/08 10:41:51;;;;;;;10.10;9.60;;;3.80;1.00;;;;;;5028526;28;20784;-67
2023/12/08 10:44:22;;;;;;;10.20;9.70;;;3.90;1.00;;;;;;5029442;28;20204;-67
2023/12/08 10:46:53;;;;;;;10.30;9.80;;;3.80;1.00;;;;;;5028754;28;20312;-67
2023/12/08 10:49:20;;;;;;;10.20;9.70;;;3.80;99.90;;;;;;5040125;28;20201;-67
2023/12/08 10:51:48;;;;;;;10.10;9.60;;;3.90;99.90;;;;;;5031780;28;20217;-67
2023/12/08 10:54:19;;;;;;;10.13;9.63;;;3.90;99.90;;;;;;5027870;28;20252;-67
2023/12/08 10:56:48;;;;;;;10.40;9.90;;;3.90;99.90;;;;;;5037583;28;20224;-67
2023/12/08 10:59:23;;;;;;;10.23;9.73;;;3.90;99.90;;;;;;5026091;28;20199;-67
2023/12/08 11:01:54;;;;;;;10.70;10.20;;;4.00;99.90;;;;;;5030430;28;20563;-68
2023/12/08 11:04:22;;;;;;;10.23;9.73;;;4.00;99.90;;;;;;5024656;28;20681;-68
2023/12/08 11:07:05;;;;;;;13.23;12.57;;;4.00;99.90;;;;;;5029303;28;20200;-68
2023/12/08 11:09:38;;;;;;;10.30;9.80;;;4.00;66.00;;;;;;5018466;28;20286;-68
2023/12/08 11:12:07;;;;;;;10.30;9.80;;;4.10;1.00;;;;;;5015337;28;20682;-67
2023/12/08 11:14:38;;;;;;;10.30;9.80;;;4.10;1.90;;;;;;5026807;28;20196;-68
2023/12/08 11:17:20;;;;;;;10.33;9.83;;;4.00;1.00;;;;;;5041436;28;20191;-67
2023/12/08 11:19:47;;;;;;;10.33;9.83;;;4.10;67.60;;;;;;5014462;28;20690;-68
2023/12/08 11:22:15;;;;;;;10.20;9.70;;;4.00;1.00;;;;;;5034889;28;20192;-67
2023/12/08 11:24:44;;;;;;;10.87;10.37;;;4.20;50.70;;;;;;5009512;28;20214;-68
2023/12/08 11:27:22;;;;;;;10.00;9.50;;;4.10;1.80;;;;;;5008415;28;20303;-65
2023/12/08 11:30:15;;;;;;;10.40;9.90;;;4.20;92.00;;;;;;5046958;28;20191;-66
2023/12/08 11:32:51;;;;;;;10.20;9.70;;;4.30;40.20;;;;;;5024625;28;20203;-67
2023/12/08 11:35:18;;;;;;;10.43;9.93;;;4.30;1.00;;;;;;5027909;28;20203;-66
2023/12/08 11:37:46;;;;;;;10.50;10.00;;;4.30;1.00;;;;;;5010309;28;20221;-65
2023/12/08 11:40:13;;;;;;;10.30;9.80;;;4.30;1.00;;;;;;5022135;28;20250;-66
2023/12/08 11:42:44;;;;;;;10.60;10.10;;;4.30;1.00;;;;;;5030230;28;20212;-66
2023/12/08 11:45:11;;;;;;;10.00;9.50;;;4.30;1.00;;;;;;5028861;28;20211;-66
2023/12/08 11:47:41;;;;;;;9.57;9.17;;;4.30;1.00;;;;;;5030054;28;20341;-66
2023/12/08 11:50:10;;;;;;;9.87;9.37;;;4.30;1.00;;;;;;5031943;28;20662;-64
2023/12/08 11:52:37;;;;;;;9.63;9.23;;;4.30;1.00;;;;;;5033798;28;20228;-66
2023/12/08 11:55:16;;;;;;;9.80;9.30;;;4.30;1.00;;;;;;5037433;28;20196;-66
2023/12/08 11:58:03;;;;;;;9.73;9.30;;;4.30;1.00;;;;;;5014445;28;20289;-66
2023/12/08 12:00:34;;;;;;;9.93;9.43;;;4.40;1.00;;;;;;5033290;28;20243;-70
2023/12/08 12:03:03;;;;;;;9.50;9.10;;;4.40;1.00;;;;;;5030406;28;20564;-71
2023/12/08 12:05:31;;;;;;;10.00;9.50;;;4.40;1.00;;;;;;5030401;28;20187;-70
2023/12/08 12:07:59;;;;;;;10.10;9.60;;;4.30;1.00;;;;;;5022724;28;20203;-70
2023/12/08 12:10:34;;;;;;;10.93;10.43;;;4.30;1.00;;;;;;5022417;28;20201;-70
2023/12/08 12:13:04;;;;;;;9.60;9.20;;;4.40;1.00;;;;;;5003356;28;20687;-70
2023/12/08 12:15:33;;;;;;;10.00;9.50;;;4.40;1.00;;;;;;5022736;28;20284;-70
2023/12/08 12:18:02;;;;;;;9.60;9.20;;;4.50;1.00;;;;;;5032701;28;20196;-70
2023/12/08 12:20:38;;;;;;;9.80;9.30;;;4.50;1.00;;;;;;5018881;28;20241;-68
2023/12/08 12:23:05;;;;;;;10.07;9.57;;;4.60;1.00;;;;;;5021376;28;20199;-69
2023/12/08 12:25:33;;;;;;;10.23;9.73;;;4.70;1.00;;;;;;5009157;28;20281;-68
2023/12/08 12:28:00;;;;;;;10.50;10.00;;;4.70;1.00;;;;;;5025838;28;20236;-68
2023/12/08 12:30:27;;;;;;;10.63;10.13;;;4.70;1.00;;;;;;5026094;28;20652;-63
2023/12/08 12:32:56;;;;;;;10.60;10.10;;;4.70;1.00;;;;;;5025783;28;20673;-68
2023/12/08 12:35:24;;;;;;;10.90;10.40;;;4.80;1.00;;;;;;5026073;28;20250;-68
2023/12/08 12:37:53;;;;;;;10.63;10.13;;;4.80;1.00;;;;;;5026479;28;20188;-69
2023/12/08 12:40:20;;;;;;;13.13;12.13;;;4.90;1.00;;;;;;5005946;28;20212;-68
2023/12/08 12:42:49;;;;;;;10.73;10.23;;;4.90;1.00;;;;;;5017107;28;20197;-67
2023/12/08 12:45:28;;;;;;;11.77;11.17;;;5.00;1.00;;;;;;5016646;28;20240;-68
2023/12/08 12:48:07;;;;;;;11.43;10.87;;;5.20;1.00;;;;;;5015589;28;20641;-67
2023/12/08 12:50:58;;;;;;;11.30;10.80;;;5.20;1.00;;;;;;5024776;28;20184;-68
2023/12/08 12:53:26;;;;;;;11.03;10.53;;;5.20;1.00;;;;;;5024251;28;20550;-68
2023/12/08 12:56:07;;;;;;;11.50;10.90;;;5.30;1.00;;;;;;4996969;28;20255;-68